createdAt,value
2018-08-04T00:00:45.719Z,3.10
2018-08-04T00:01:45.725Z,3.20
2018-08-04T00:02:45.724Z,3.20
2018-08-04T00:03:45.728Z,3.30
2018-08-04T00:04:45.732Z,3.10
2018-08-04T00:05:45.735Z,3.30
2018-08-04T00:06:45.741Z,3.20
2018-08-04T00:07:45.743Z,3.10
2018-08-04T00:08:45.748Z,3.20
2018-08-04T00:09:45.750Z,3.10
2018-08-04T00:10:45.755Z,3.20
2018-08-04T00:11:45.761Z,3.20
2018-08-04T00:12:45.761Z,3.10
2018-08-04T00:13:45.762Z,3.10
2018-08-04T00:14:45.770Z,3.30
2018-08-04T00:15:45.773Z,3.50
2018-08-04T00:16:45.780Z,3.30
2018-08-04T00:17:45.780Z,3.40
2018-08-04T00:18:45.788Z,3.30
2018-08-04T00:19:45.788Z,3.40
2018-08-04T00:20:45.790Z,3.20
2018-08-04T00:21:45.793Z,3.00
2018-08-04T00:22:45.796Z,3.20
2018-08-04T00:23:45.801Z,3.20
2018-08-04T00:24:45.805Z,3.30
2018-08-04T00:25:45.807Z,3.10
2018-08-04T00:26:45.814Z,3.20
2018-08-04T00:27:45.814Z,3.10
2018-08-04T00:28:45.818Z,3.00
2018-08-04T00:29:45.825Z,3.00
2018-08-04T00:30:45.827Z,3.30
2018-08-04T00:31:45.829Z,3.20
2018-08-04T00:32:45.834Z,3.10
2018-08-04T00:33:45.837Z,3.10
2018-08-04T00:34:45.840Z,3.20
2018-08-04T00:35:45.847Z,3.20
2018-08-04T00:36:45.847Z,3.20
2018-08-04T00:37:45.850Z,3.20
2018-08-04T00:38:45.857Z,3.20
2018-08-04T00:39:45.860Z,3.30
2018-08-04T00:40:45.864Z,2.90
2018-08-04T00:41:45.866Z,3.20
2018-08-04T00:42:45.926Z,3.20
2018-08-04T00:43:45.869Z,3.30
2018-08-04T00:44:45.875Z,3.10
2018-08-04T00:45:45.881Z,3.10
2018-08-04T00:46:45.887Z,3.20
2018-08-04T00:47:45.885Z,3.50
2018-08-04T00:48:45.891Z,3.20
2018-08-04T00:49:45.895Z,2.80
2018-08-04T00:50:45.897Z,3.20
2018-08-04T00:51:45.898Z,3.10
2018-08-04T00:52:45.903Z,3.10
2018-08-04T00:53:45.908Z,3.10
2018-08-04T00:54:45.910Z,3.30
2018-08-04T00:55:45.912Z,3.10
2018-08-04T00:56:45.917Z,3.40
2018-08-04T00:57:45.921Z,3.00
2018-08-04T00:58:45.925Z,3.20
2018-08-04T00:59:45.929Z,3.10
2018-08-04T01:00:45.929Z,3.20
2018-08-04T01:01:45.935Z,3.00
2018-08-04T01:02:45.936Z,3.40
2018-08-04T01:03:45.942Z,3.00
2018-08-04T01:04:45.947Z,3.40
2018-08-04T01:05:45.948Z,3.00
2018-08-04T01:06:45.955Z,2.90
2018-08-04T01:07:45.955Z,2.80
2018-08-04T01:08:45.957Z,2.90
2018-08-04T01:09:45.959Z,3.00
2018-08-04T01:10:45.963Z,2.90
2018-08-04T01:11:45.968Z,2.90
2018-08-04T01:12:45.972Z,2.70
2018-08-04T01:13:45.983Z,2.90
2018-08-04T01:14:45.982Z,2.80
2018-08-04T01:15:45.981Z,2.70
2018-08-04T01:16:45.989Z,3.10
2018-08-04T01:17:45.990Z,2.60
2018-08-04T01:18:45.993Z,2.90
2018-08-04T01:19:45.996Z,3.20
2018-08-04T01:20:46.001Z,2.80
2018-08-04T01:21:46.007Z,2.80
2018-08-04T01:22:46.010Z,3.00
2018-08-04T01:23:46.010Z,2.90
2018-08-04T01:24:46.013Z,3.00
2018-08-04T01:25:46.017Z,2.90
2018-08-04T01:26:46.019Z,2.90
2018-08-04T01:27:46.022Z,3.00
2018-08-04T01:28:46.024Z,2.80
2018-08-04T01:29:46.031Z,2.90
2018-08-04T01:30:46.033Z,2.90
2018-08-04T01:31:46.040Z,3.10
2018-08-04T01:32:46.044Z,3.10
2018-08-04T01:33:46.045Z,2.70
2018-08-04T01:34:46.049Z,3.00
2018-08-04T01:35:46.050Z,3.10
2018-08-04T01:36:46.054Z,2.90
2018-08-04T01:37:46.058Z,2.90
2018-08-04T01:38:46.061Z,2.80
2018-08-04T01:39:46.068Z,3.20
2018-08-04T01:40:46.069Z,2.80
2018-08-04T01:41:46.076Z,3.00
2018-08-04T01:42:46.076Z,3.20
2018-08-04T01:43:46.078Z,2.90
2018-08-04T01:44:46.081Z,3.00
2018-08-04T01:45:46.087Z,3.20
2018-08-04T01:46:46.089Z,3.00
2018-08-04T01:47:46.093Z,2.80
2018-08-04T01:48:46.095Z,3.10
2018-08-04T01:49:46.101Z,2.90
2018-08-04T01:50:46.102Z,2.80
2018-08-04T01:51:46.105Z,3.10
2018-08-04T01:52:46.109Z,3.10
2018-08-04T01:53:46.156Z,3.00
2018-08-04T01:54:46.119Z,2.90
2018-08-04T01:55:46.118Z,2.90
2018-08-04T01:56:46.125Z,3.00
2018-08-04T01:57:46.125Z,2.90
2018-08-04T01:58:46.129Z,2.90
2018-08-04T01:59:46.131Z,3.40
2018-08-04T02:00:46.133Z,3.10
2018-08-04T02:01:46.138Z,3.00
2018-08-04T02:02:46.142Z,2.80
2018-08-04T02:03:46.148Z,2.90
2018-08-04T02:04:46.152Z,2.90
2018-08-04T02:05:46.157Z,3.30
2018-08-04T02:06:46.159Z,2.90
2018-08-04T02:07:46.161Z,2.80
2018-08-04T02:08:46.162Z,3.00
2018-08-04T02:09:46.164Z,2.80
2018-08-04T02:10:46.169Z,3.00
2018-08-04T02:11:46.170Z,2.90
2018-08-04T02:12:46.176Z,3.10
2018-08-04T02:13:46.178Z,2.90
2018-08-04T02:14:46.181Z,3.00
2018-08-04T02:15:46.184Z,3.10
2018-08-04T02:16:46.192Z,2.80
2018-08-04T02:17:46.190Z,2.80
2018-08-04T02:18:46.194Z,2.90
2018-08-04T02:19:46.198Z,2.90
2018-08-04T02:20:46.200Z,3.00
2018-08-04T02:21:46.202Z,3.10
2018-08-04T02:22:46.208Z,2.90
2018-08-04T02:23:46.208Z,2.90
2018-08-04T02:24:46.215Z,3.00
2018-08-04T02:25:46.215Z,3.10
2018-08-04T02:26:46.218Z,3.20
2018-08-04T02:27:46.222Z,3.00
2018-08-04T02:28:46.227Z,3.00
2018-08-04T02:29:46.226Z,3.10
2018-08-04T02:30:46.229Z,3.20
2018-08-04T02:31:46.231Z,3.10
2018-08-04T02:32:46.239Z,3.20
2018-08-04T02:33:46.244Z,3.00
2018-08-04T02:34:46.241Z,3.20
2018-08-04T02:35:46.246Z,3.40
2018-08-04T02:36:46.246Z,2.90
2018-08-04T02:37:46.248Z,3.30
2018-08-04T02:38:46.252Z,3.40
2018-08-04T02:39:46.255Z,3.40
2018-08-04T02:40:46.259Z,3.60
2018-08-04T02:41:46.263Z,3.10
2018-08-04T02:42:46.265Z,3.40
2018-08-04T02:43:46.266Z,3.70
2018-08-04T02:44:46.270Z,3.50
2018-08-04T02:45:46.275Z,3.40
2018-08-04T02:46:46.275Z,3.50
2018-08-04T02:47:46.279Z,3.30
2018-08-04T02:48:46.286Z,3.40
2018-08-04T02:49:46.285Z,3.50
2018-08-04T02:50:46.292Z,3.50
2018-08-04T02:51:46.297Z,3.70
2018-08-04T02:52:46.290Z,3.30
2018-08-04T02:53:46.295Z,3.40
2018-08-04T02:54:46.303Z,3.30
2018-08-04T02:55:46.302Z,3.10
2018-08-04T02:56:46.307Z,3.30
2018-08-04T02:57:46.307Z,3.30
2018-08-04T02:58:46.312Z,3.40
2018-08-04T02:59:46.315Z,3.50
2018-08-04T03:00:46.315Z,3.60
2018-08-04T03:01:46.317Z,3.40
2018-08-04T03:02:46.322Z,3.50
2018-08-04T03:03:46.322Z,3.60
2018-08-04T03:04:46.327Z,3.70
2018-08-04T03:05:46.327Z,3.70
2018-08-04T03:06:46.332Z,3.50
2018-08-04T03:07:46.332Z,3.70
2018-08-04T03:08:46.338Z,3.50
2018-08-04T03:09:46.340Z,3.90
2018-08-04T03:10:46.341Z,3.60
2018-08-04T03:11:46.344Z,3.90
2018-08-04T03:12:46.347Z,3.70
2018-08-04T03:13:46.350Z,3.80
2018-08-04T03:14:46.352Z,3.90
2018-08-04T03:15:46.364Z,3.80
2018-08-04T03:16:46.358Z,3.90
2018-08-04T03:17:46.364Z,3.60
2018-08-04T03:18:46.364Z,3.80
2018-08-04T03:19:46.365Z,4.10
2018-08-04T03:20:46.367Z,3.90
2018-08-04T03:21:46.368Z,3.90
2018-08-04T03:22:46.373Z,4.00
2018-08-04T03:23:46.375Z,4.00
2018-08-04T03:24:46.376Z,3.80
2018-08-04T03:25:46.381Z,3.90
2018-08-04T03:26:46.384Z,4.00
2018-08-04T03:27:46.384Z,4.10
2018-08-04T03:28:46.388Z,4.30
2018-08-04T03:29:46.391Z,3.90
2018-08-04T03:30:46.395Z,3.90
2018-08-04T03:31:46.396Z,4.30
2018-08-04T03:32:46.398Z,3.90
2018-08-04T03:33:46.400Z,4.20
2018-08-04T03:34:46.403Z,4.00
2018-08-04T03:35:46.403Z,4.00
2018-08-04T03:36:46.407Z,4.00
2018-08-04T03:37:46.412Z,3.90
2018-08-04T03:38:46.414Z,4.10
2018-08-04T03:39:46.417Z,4.10
2018-08-04T03:40:46.420Z,4.20
2018-08-04T03:41:46.421Z,4.30
2018-08-04T03:42:46.425Z,4.20
2018-08-04T03:43:46.425Z,4.20
2018-08-04T03:44:46.428Z,4.40
2018-08-04T03:45:46.430Z,4.30
2018-08-04T03:46:46.434Z,4.30
2018-08-04T03:47:46.436Z,4.00
2018-08-04T03:48:46.439Z,4.10
2018-08-04T03:49:46.441Z,4.10
2018-08-04T03:50:46.443Z,4.10
2018-08-04T03:51:46.449Z,4.00
2018-08-04T03:52:46.448Z,4.20
2018-08-04T03:53:46.451Z,4.40
2018-08-04T03:54:46.457Z,4.00
2018-08-04T03:55:46.456Z,4.30
2018-08-04T03:56:46.459Z,4.10
2018-08-04T03:57:46.461Z,4.30
2018-08-04T03:58:46.464Z,4.30
2018-08-04T03:59:46.479Z,4.10
2018-08-04T04:00:46.470Z,4.10
2018-08-04T04:01:46.472Z,4.30
2018-08-04T04:02:46.479Z,4.20
2018-08-04T04:03:46.480Z,4.10
2018-08-04T04:04:46.478Z,4.20
2018-08-04T04:05:46.483Z,4.10
2018-08-04T04:06:46.485Z,4.20
2018-08-04T04:07:46.486Z,4.10
2018-08-04T04:08:46.491Z,4.30
2018-08-04T04:09:46.494Z,4.20
2018-08-04T04:10:46.498Z,4.20
2018-08-04T04:11:46.496Z,4.30
2018-08-04T04:12:46.503Z,4.30
2018-08-04T04:13:46.506Z,4.30
2018-08-04T04:14:46.507Z,4.50
2018-08-04T04:15:46.514Z,4.50
2018-08-04T04:16:46.512Z,4.50
2018-08-04T04:17:46.514Z,4.20
2018-08-04T04:18:46.516Z,4.40
2018-08-04T04:19:46.525Z,4.70
2018-08-04T04:20:46.522Z,4.60
2018-08-04T04:21:46.524Z,4.60
2018-08-04T04:22:46.527Z,4.50
2018-08-04T04:23:46.530Z,4.10
2018-08-04T04:24:46.533Z,4.20
2018-08-04T04:25:46.537Z,4.40
2018-08-04T04:26:46.539Z,4.10
2018-08-04T04:27:46.542Z,4.40
2018-08-04T04:28:46.549Z,4.20
2018-08-04T04:29:46.551Z,4.10
2018-08-04T04:30:46.550Z,4.40
2018-08-04T04:31:46.554Z,4.30
2018-08-04T04:32:46.557Z,4.50
2018-08-04T04:33:46.562Z,4.40
2018-08-04T04:34:46.563Z,4.50
2018-08-04T04:35:46.565Z,4.30
2018-08-04T04:36:46.592Z,4.40
2018-08-04T04:37:46.571Z,4.40
2018-08-04T04:38:46.574Z,4.20
2018-08-04T04:39:46.577Z,4.10
2018-08-04T04:40:46.581Z,4.10
2018-08-04T04:41:46.583Z,4.50
2018-08-04T04:42:46.585Z,4.40
2018-08-04T04:43:46.592Z,4.40
2018-08-04T04:44:46.594Z,4.60
2018-08-04T04:45:46.597Z,4.60
2018-08-04T04:46:46.602Z,4.70
2018-08-04T04:47:46.600Z,4.50
2018-08-04T04:48:46.609Z,4.30
2018-08-04T04:49:46.615Z,4.40
2018-08-04T04:50:46.616Z,4.20
2018-08-04T04:51:46.616Z,4.30
2018-08-04T04:52:46.623Z,4.10
2018-08-04T04:53:46.625Z,4.20
2018-08-04T04:54:46.626Z,4.30
2018-08-04T04:55:46.631Z,4.10
2018-08-04T04:56:46.634Z,4.30
2018-08-04T04:57:46.638Z,4.30
2018-08-04T04:58:46.649Z,4.20
2018-08-04T04:59:46.647Z,4.20
2018-08-04T05:00:46.651Z,4.30
2018-08-04T05:01:46.655Z,4.20
2018-08-04T05:02:46.659Z,4.10
2018-08-04T05:03:46.665Z,4.30
2018-08-04T05:04:46.673Z,4.20
2018-08-04T05:05:46.677Z,4.20
2018-08-04T05:06:46.676Z,4.10
2018-08-04T05:07:46.681Z,4.00
2018-08-04T05:08:46.759Z,4.20
2018-08-04T05:09:46.690Z,4.00
2018-08-04T05:10:46.695Z,3.90
2018-08-04T05:11:46.700Z,4.00
2018-08-04T05:12:46.708Z,3.70
2018-08-04T05:13:46.709Z,3.80
2018-08-04T05:14:46.713Z,3.60
2018-08-04T05:15:46.720Z,3.70
2018-08-04T05:16:46.722Z,3.90
2018-08-04T05:17:46.728Z,3.90
2018-08-04T05:18:46.735Z,3.80
2018-08-04T05:19:46.739Z,3.90
2018-08-04T05:20:46.745Z,4.10
2018-08-04T05:21:46.752Z,3.80
2018-08-04T05:22:46.758Z,3.80
2018-08-04T05:23:46.763Z,3.60
2018-08-04T05:24:46.770Z,3.70
2018-08-04T05:25:46.775Z,4.00
2018-08-04T05:26:46.781Z,3.60
2018-08-04T05:27:46.784Z,3.60
2018-08-04T05:28:46.790Z,3.90
2018-08-04T05:29:46.796Z,3.80
2018-08-04T05:30:46.804Z,3.70
2018-08-04T05:31:46.810Z,3.80
2018-08-04T05:32:46.815Z,3.80
2018-08-04T05:33:46.822Z,3.70
2018-08-04T05:34:46.829Z,3.70
2018-08-04T05:35:46.833Z,3.50
2018-08-04T05:36:46.841Z,3.40
2018-08-04T05:37:46.850Z,3.60
2018-08-04T05:38:46.856Z,3.70
2018-08-04T05:39:46.862Z,3.40
2018-08-04T05:40:46.869Z,3.60
2018-08-04T05:41:46.877Z,3.50
2018-08-04T05:42:46.883Z,3.40
2018-08-04T05:43:46.886Z,3.50
2018-08-04T05:44:46.893Z,3.60
2018-08-04T05:45:46.904Z,3.60
2018-08-04T05:46:46.908Z,3.90
2018-08-04T05:47:46.915Z,3.70
2018-08-04T05:48:46.921Z,4.00
2018-08-04T05:49:46.928Z,4.00
2018-08-04T05:50:46.936Z,3.50
2018-08-04T05:51:46.941Z,3.80
2018-08-04T05:52:46.951Z,3.50
2018-08-04T05:53:46.960Z,3.10
2018-08-04T05:54:46.968Z,2.90
2018-08-04T05:55:46.974Z,3.10
2018-08-04T05:56:46.983Z,3.10
2018-08-04T05:57:46.995Z,3.00
2018-08-04T05:58:46.999Z,3.00
2018-08-04T05:59:47.007Z,3.00
2018-08-04T06:00:47.013Z,2.90
2018-08-04T06:01:47.037Z,3.00
2018-08-04T06:02:47.031Z,3.10
2018-08-04T06:03:47.037Z,2.70
2018-08-04T06:04:47.046Z,2.50
2018-08-04T06:05:47.052Z,2.60
2018-08-04T06:06:47.064Z,2.60
2018-08-04T06:07:47.070Z,2.50
2018-08-04T06:08:47.079Z,2.60
2018-08-04T06:09:47.089Z,2.50
2018-08-04T06:10:47.096Z,2.30
2018-08-04T06:11:47.105Z,2.30
2018-08-04T06:12:47.115Z,2.30
2018-08-04T06:13:47.128Z,2.30
2018-08-04T06:14:47.131Z,2.30
2018-08-04T06:15:47.139Z,2.20
2018-08-04T06:16:47.148Z,2.30
2018-08-04T06:17:47.158Z,2.20
2018-08-04T06:18:47.168Z,2.30
2018-08-04T06:19:47.175Z,2.10
2018-08-04T06:20:47.184Z,2.30
2018-08-04T06:21:47.196Z,2.20
2018-08-04T06:22:47.206Z,2.30
2018-08-04T06:23:47.216Z,2.40
2018-08-04T06:24:47.222Z,2.20
2018-08-04T06:25:47.232Z,2.20
2018-08-04T06:26:47.240Z,2.30
2018-08-04T06:27:47.253Z,2.20
2018-08-04T06:28:47.258Z,2.10
2018-08-04T06:29:47.268Z,2.00
2018-08-04T06:30:47.277Z,2.10
2018-08-04T06:31:47.335Z,2.20
2018-08-04T06:32:47.295Z,2.10
2018-08-04T06:33:47.307Z,2.00
2018-08-04T06:34:47.330Z,2.10
2018-08-04T06:35:47.324Z,2.00
2018-08-04T06:36:47.333Z,2.00
2018-08-04T06:37:47.349Z,2.10
2018-08-04T06:38:47.355Z,1.90
2018-08-04T06:39:47.364Z,2.00
2018-08-04T06:40:47.376Z,2.30
2018-08-04T06:41:47.424Z,2.00
2018-08-04T06:42:47.395Z,2.20
2018-08-04T06:43:47.402Z,2.00
2018-08-04T06:44:47.414Z,2.10
2018-08-04T06:45:47.430Z,2.00
2018-08-04T06:46:47.434Z,2.00
2018-08-04T06:47:47.444Z,1.90
2018-08-04T06:48:47.456Z,1.90
2018-08-04T06:49:47.465Z,2.10
2018-08-04T06:50:47.475Z,2.00
2018-08-04T06:51:47.485Z,2.10
2018-08-04T06:52:47.538Z,2.10
2018-08-04T06:53:47.506Z,2.10
2018-08-04T06:54:47.522Z,2.00
2018-08-04T06:55:47.526Z,2.10
2018-08-04T06:56:47.537Z,2.00
2018-08-04T06:57:47.555Z,1.90
2018-08-04T06:58:47.560Z,1.90
2018-08-04T06:59:47.569Z,1.90
2018-08-04T07:00:47.576Z,1.90
2018-08-04T07:01:47.592Z,2.10
2018-08-04T07:02:47.603Z,1.90
2018-08-04T07:03:47.613Z,2.00
2018-08-04T07:04:47.632Z,2.10
2018-08-04T07:05:47.636Z,2.00
2018-08-04T07:06:47.649Z,1.90
2018-08-04T07:07:47.657Z,2.00
2018-08-04T07:08:47.670Z,1.80
2018-08-04T07:09:47.681Z,1.80
2018-08-04T07:10:48.027Z,1.80
2018-08-04T07:11:47.706Z,1.90
2018-08-04T07:12:47.713Z,2.20
2018-08-04T07:13:47.788Z,2.10
2018-08-04T07:14:47.738Z,1.90
2018-08-04T07:15:47.749Z,1.90
2018-08-04T07:16:47.760Z,2.00
2018-08-04T07:17:47.771Z,1.90
2018-08-04T07:18:47.783Z,2.10
2018-08-04T07:19:47.795Z,1.90
2018-08-04T07:20:47.804Z,2.10
2018-08-04T07:21:47.817Z,1.90
2018-08-04T07:22:47.855Z,1.80
2018-08-04T07:23:47.841Z,2.00
2018-08-04T07:24:47.853Z,2.00
2018-08-04T07:25:47.865Z,1.90
2018-08-04T07:26:47.877Z,1.90
2018-08-04T07:27:47.888Z,1.90
2018-08-04T07:28:47.924Z,1.90
2018-08-04T07:29:47.914Z,1.90
2018-08-04T07:30:47.925Z,2.30
2018-08-04T07:31:47.938Z,2.00
2018-08-04T07:32:47.949Z,2.10
2018-08-04T07:33:47.959Z,1.80
2018-08-04T07:34:47.972Z,2.10
2018-08-04T07:35:47.984Z,2.00
2018-08-04T07:36:47.996Z,1.90
2018-08-04T07:37:48.009Z,2.10
2018-08-04T07:38:48.022Z,1.90
2018-08-04T07:39:48.036Z,2.00
2018-08-04T07:40:48.049Z,1.80
2018-08-04T07:41:48.062Z,2.00
2018-08-04T07:42:48.071Z,2.00
2018-08-04T07:43:48.082Z,2.00
2018-08-04T07:44:48.099Z,2.20
2018-08-04T07:45:48.107Z,2.10
2018-08-04T07:46:48.122Z,2.00
2018-08-04T07:47:48.132Z,2.10
2018-08-04T07:48:48.149Z,2.10
2018-08-04T07:49:48.159Z,2.00
2018-08-04T07:50:48.172Z,2.10
2018-08-04T07:51:48.185Z,2.20
2018-08-04T07:52:48.198Z,2.10
2018-08-04T07:53:48.211Z,2.00
2018-08-04T07:54:48.224Z,2.00
2018-08-04T07:55:48.241Z,1.90
2018-08-04T07:56:48.253Z,1.90
2018-08-04T07:57:48.263Z,1.90
2018-08-04T07:58:48.278Z,2.10
2018-08-04T07:59:48.287Z,1.80
2018-08-04T08:00:48.301Z,1.70
2018-08-04T08:01:48.316Z,1.90
2018-08-04T08:02:48.328Z,2.00
2018-08-04T08:03:48.348Z,1.90
2018-08-04T08:04:48.354Z,1.80
2018-08-04T08:05:48.369Z,2.00
2018-08-04T08:06:48.381Z,2.00
2018-08-04T08:07:48.394Z,2.20
2018-08-04T08:08:48.414Z,2.00
2018-08-04T08:09:48.423Z,2.00
2018-08-04T08:10:48.517Z,2.10
2018-08-04T08:11:48.448Z,2.00
2018-08-04T08:12:48.458Z,2.10
2018-08-04T08:13:48.477Z,2.00
2018-08-04T08:14:48.489Z,2.10
2018-08-04T08:15:48.503Z,2.20
2018-08-04T08:16:48.517Z,2.20
2018-08-04T08:17:48.530Z,2.10
2018-08-04T08:18:48.542Z,2.20
2018-08-04T08:19:48.558Z,2.00
2018-08-04T08:20:48.571Z,2.10
2018-08-04T08:21:48.582Z,2.20
2018-08-04T08:22:48.598Z,2.10
2018-08-04T08:23:48.609Z,2.00
2018-08-04T08:24:48.650Z,2.10
2018-08-04T08:25:48.634Z,2.20
2018-08-04T08:26:48.651Z,2.10
2018-08-04T08:27:48.665Z,2.10
2018-08-04T08:28:48.679Z,2.20
2018-08-04T08:29:48.692Z,1.90
2018-08-04T08:30:48.708Z,2.10
2018-08-04T08:31:48.721Z,2.10
2018-08-04T08:32:48.736Z,2.20
2018-08-04T08:33:48.748Z,2.10
2018-08-04T08:34:48.767Z,2.10
2018-08-04T08:35:48.775Z,2.00
2018-08-04T08:36:48.791Z,1.90
2018-08-04T08:37:48.805Z,2.10
2018-08-04T08:38:48.821Z,2.10
2018-08-04T08:39:48.836Z,2.00
2018-08-04T08:40:48.848Z,2.00
2018-08-04T08:41:48.861Z,1.90
2018-08-04T08:42:48.877Z,2.00
2018-08-04T08:43:48.891Z,2.00
2018-08-04T08:44:48.907Z,2.10
2018-08-04T08:45:48.921Z,2.10
2018-08-04T08:46:48.937Z,2.10
2018-08-04T08:47:48.949Z,2.00
2018-08-04T08:48:48.963Z,2.00
2018-08-04T08:49:48.977Z,2.40
2018-08-04T08:50:48.996Z,2.00
2018-08-04T08:51:49.005Z,2.10
2018-08-04T08:52:49.021Z,2.00
2018-08-04T08:53:49.084Z,2.10
2018-08-04T08:54:49.052Z,2.00
2018-08-04T08:55:49.062Z,2.00
2018-08-04T08:56:49.081Z,2.00
2018-08-04T08:57:49.095Z,2.20
2018-08-04T08:58:49.107Z,2.00
2018-08-04T08:59:49.120Z,2.00
2018-08-04T09:00:49.138Z,2.00
2018-08-04T09:01:49.151Z,1.90
2018-08-04T09:02:49.170Z,1.90
2018-08-04T09:03:49.177Z,2.00
2018-08-04T09:04:49.194Z,2.00
2018-08-04T09:05:49.209Z,2.10
2018-08-04T09:06:49.220Z,2.00
2018-08-04T09:07:49.236Z,2.20
2018-08-04T09:08:49.250Z,2.10
2018-08-04T09:09:49.263Z,1.90
2018-08-04T09:10:49.277Z,2.10
2018-08-04T09:11:49.289Z,2.00
2018-08-04T09:12:49.304Z,2.00
2018-08-04T09:13:49.316Z,2.20
2018-08-04T09:14:49.328Z,2.10
2018-08-04T09:15:49.341Z,1.90
2018-08-04T09:16:49.353Z,2.30
2018-08-04T09:17:49.367Z,2.20
2018-08-04T09:18:49.380Z,2.00
2018-08-04T09:19:49.388Z,2.00
2018-08-04T09:20:49.399Z,2.00
2018-08-04T09:21:49.412Z,2.00
2018-08-04T09:22:49.423Z,2.10
2018-08-04T09:23:49.431Z,1.90
2018-08-04T09:24:49.540Z,2.10
2018-08-04T09:25:49.456Z,2.10
2018-08-04T09:26:49.475Z,2.30
2018-08-04T09:27:49.476Z,2.20
2018-08-04T09:28:49.497Z,2.10
2018-08-04T09:29:49.496Z,2.30
2018-08-04T09:30:49.569Z,2.30
2018-08-04T09:31:49.519Z,2.30
2018-08-04T09:32:49.524Z,2.30
2018-08-04T09:33:49.539Z,2.30
2018-08-04T09:34:49.547Z,2.40
2018-08-04T09:35:49.558Z,2.30
2018-08-04T09:36:49.569Z,2.30
2018-08-04T09:37:49.586Z,2.30
2018-08-04T09:38:49.591Z,2.30
2018-08-04T09:39:49.605Z,2.40
2018-08-04T09:40:49.612Z,2.30
2018-08-04T09:41:49.618Z,2.50
2018-08-04T09:42:49.623Z,2.30
2018-08-04T09:43:49.637Z,2.40
2018-08-04T09:44:49.647Z,2.30
2018-08-04T09:45:49.655Z,2.40
2018-08-04T09:46:49.665Z,2.50
2018-08-04T09:47:49.678Z,2.20
2018-08-04T09:48:49.687Z,2.40
2018-08-04T09:49:49.693Z,2.40
2018-08-04T09:50:49.700Z,2.50
2018-08-04T09:51:49.708Z,2.40
2018-08-04T09:52:49.723Z,2.30
2018-08-04T09:53:49.733Z,2.20
2018-08-04T09:54:49.740Z,2.40
2018-08-04T09:55:49.749Z,2.30
2018-08-04T09:56:49.758Z,2.30
2018-08-04T09:57:49.766Z,2.60
2018-08-04T09:58:49.777Z,2.60
2018-08-04T09:59:49.794Z,2.60
2018-08-04T10:00:49.795Z,2.50
2018-08-04T10:01:49.805Z,2.20
2018-08-04T10:02:49.813Z,2.60
2018-08-04T10:03:49.823Z,2.60
2018-08-04T10:04:49.834Z,2.50
2018-08-04T10:05:49.842Z,2.70
2018-08-04T10:06:49.852Z,2.40
2018-08-04T10:07:49.856Z,2.50
2018-08-04T10:08:49.875Z,2.30
2018-08-04T10:09:49.872Z,2.60
2018-08-04T10:10:49.887Z,2.40
2018-08-04T10:11:49.895Z,2.70
2018-08-04T10:12:49.907Z,2.60
2018-08-04T10:13:49.915Z,2.50
2018-08-04T10:14:49.925Z,2.50
2018-08-04T10:15:49.932Z,2.30
2018-08-04T10:16:49.940Z,2.40
2018-08-04T10:17:49.950Z,2.60
2018-08-04T10:18:49.959Z,2.50
2018-08-04T10:19:49.968Z,2.40
2018-08-04T10:20:49.978Z,2.50
2018-08-04T10:21:49.986Z,2.40
2018-08-04T10:22:49.994Z,2.30
2018-08-04T10:23:50.004Z,2.50
2018-08-04T10:24:50.013Z,2.60
2018-08-04T10:25:50.023Z,2.50
2018-08-04T10:26:50.036Z,2.60
2018-08-04T10:27:50.040Z,2.50
2018-08-04T10:28:50.050Z,2.40
2018-08-04T10:29:50.058Z,2.50
2018-08-04T10:30:50.071Z,2.60
2018-08-04T10:31:50.079Z,2.30
2018-08-04T10:32:50.124Z,2.30
2018-08-04T10:33:50.093Z,2.60
2018-08-04T10:34:50.103Z,2.70
2018-08-04T10:35:50.207Z,2.50
2018-08-04T10:36:50.121Z,2.50
2018-08-04T10:37:50.130Z,2.50
2018-08-04T10:38:50.143Z,2.60
2018-08-04T10:39:50.148Z,2.40
2018-08-04T10:40:50.160Z,2.70
2018-08-04T10:41:50.167Z,2.60
2018-08-04T10:42:50.173Z,2.60
2018-08-04T10:43:50.201Z,2.40
2018-08-04T10:44:50.193Z,2.40
2018-08-04T10:45:50.203Z,2.40
2018-08-04T10:46:50.210Z,2.40
2018-08-04T10:47:50.221Z,2.40
2018-08-04T10:48:50.231Z,2.60
2018-08-04T10:49:50.235Z,2.50
2018-08-04T10:50:50.246Z,2.40
2018-08-04T10:51:50.252Z,2.60
2018-08-04T10:52:50.263Z,2.60
2018-08-04T10:53:50.276Z,2.40
2018-08-04T10:54:50.282Z,2.20
2018-08-04T10:55:50.289Z,2.60
2018-08-04T10:56:50.302Z,2.30
2018-08-04T10:57:50.309Z,2.50
2018-08-04T10:58:50.320Z,2.30
2018-08-04T10:59:50.327Z,2.20
2018-08-04T11:00:50.522Z,2.30
2018-08-04T11:01:50.344Z,2.60
2018-08-04T11:02:50.351Z,2.50
2018-08-04T11:03:50.371Z,2.50
2018-08-04T11:04:50.382Z,2.50
2018-08-04T11:05:50.381Z,2.70
2018-08-04T11:06:50.397Z,2.50
2018-08-04T11:07:50.401Z,2.50
2018-08-04T11:08:50.408Z,2.30
2018-08-04T11:09:50.420Z,2.50
2018-08-04T11:10:50.426Z,2.30
2018-08-04T11:11:50.439Z,2.40
2018-08-04T11:12:50.449Z,2.40
2018-08-04T11:13:50.454Z,2.60
2018-08-04T11:14:50.465Z,2.40
2018-08-04T11:15:50.471Z,2.50
2018-08-04T11:16:50.483Z,2.30
2018-08-04T11:17:50.489Z,2.50
2018-08-04T11:18:50.497Z,2.50
2018-08-04T11:19:50.526Z,2.50
2018-08-04T11:20:50.513Z,2.40
2018-08-04T11:21:50.526Z,2.60
2018-08-04T11:22:50.536Z,2.60
2018-08-04T11:23:50.545Z,2.50
2018-08-04T11:24:50.556Z,2.50
2018-08-04T11:25:50.567Z,2.30
2018-08-04T11:26:50.571Z,2.30
2018-08-04T11:27:50.579Z,2.40
2018-08-04T11:28:50.590Z,2.40
2018-08-04T11:29:50.601Z,2.70
2018-08-04T11:30:50.641Z,2.70
2018-08-04T11:31:50.614Z,2.50
2018-08-04T11:32:50.629Z,2.90
2018-08-04T11:33:50.639Z,2.90
2018-08-04T11:34:50.645Z,3.00
2018-08-04T11:35:50.653Z,2.80
2018-08-04T11:36:50.661Z,2.90
2018-08-04T11:37:50.698Z,3.10
2018-08-04T11:38:50.685Z,3.10
2018-08-04T11:39:50.690Z,2.70
2018-08-04T11:40:50.700Z,3.00
2018-08-04T11:41:50.709Z,2.80
2018-08-04T11:42:50.720Z,2.50
2018-08-04T11:43:50.726Z,2.90
2018-08-04T11:44:50.738Z,2.70
2018-08-04T11:45:50.746Z,2.70
2018-08-04T11:46:50.755Z,2.70
2018-08-04T11:47:50.765Z,2.70
2018-08-04T11:48:50.774Z,2.80
2018-08-04T11:49:50.781Z,2.70
2018-08-04T11:50:50.792Z,2.70
2018-08-04T11:51:50.798Z,2.80
2018-08-04T11:52:50.809Z,2.70
2018-08-04T11:53:50.815Z,2.70
2018-08-04T11:54:50.826Z,2.50
2018-08-04T11:55:50.834Z,2.80
2018-08-04T11:56:50.847Z,2.80
2018-08-04T11:57:50.861Z,2.80
2018-08-04T11:58:50.864Z,2.80
2018-08-04T11:59:50.877Z,2.50
2018-08-04T12:00:50.881Z,2.70
2018-08-04T12:01:50.905Z,2.90
2018-08-04T12:02:50.900Z,2.40
2018-08-04T12:03:50.912Z,2.60
2018-08-04T12:04:50.918Z,2.70
2018-08-04T12:05:50.929Z,2.70
2018-08-04T12:06:50.939Z,2.70
2018-08-04T12:07:50.946Z,2.40
2018-08-04T12:08:50.954Z,2.50
2018-08-04T12:09:50.966Z,2.80
2018-08-04T12:10:50.977Z,2.60
2018-08-04T12:11:50.985Z,2.40
2018-08-04T12:12:50.993Z,2.50
2018-08-04T12:13:51.003Z,2.70
2018-08-04T12:14:51.013Z,2.60
2018-08-04T12:15:51.026Z,2.80
2018-08-04T12:16:51.031Z,2.80
2018-08-04T12:17:51.041Z,2.80
2018-08-04T12:18:51.051Z,2.50
2018-08-04T12:19:51.059Z,2.90
2018-08-04T12:20:51.067Z,2.80
2018-08-04T12:21:51.078Z,2.60
2018-08-04T12:22:51.090Z,2.50
2018-08-04T12:23:51.097Z,2.60
2018-08-04T12:24:51.105Z,2.50
2018-08-04T12:25:51.118Z,2.70
2018-08-04T12:26:51.127Z,2.70
2018-08-04T12:27:51.138Z,2.90
2018-08-04T12:28:51.144Z,2.90
2018-08-04T12:29:51.152Z,2.70
2018-08-04T12:30:51.163Z,2.80
2018-08-04T12:31:51.172Z,2.60
2018-08-04T12:32:51.182Z,2.80
2018-08-04T12:33:51.189Z,2.70
2018-08-04T12:34:53.126Z,2.60
2018-08-04T12:35:51.209Z,2.70
2018-08-04T12:36:51.219Z,2.70
2018-08-04T12:37:51.228Z,2.50
2018-08-04T12:38:51.238Z,2.70
2018-08-04T12:39:51.246Z,2.70
2018-08-04T12:40:51.256Z,2.40
2018-08-04T12:41:51.264Z,2.60
2018-08-04T12:42:51.276Z,2.70
2018-08-04T12:43:51.284Z,2.50
2018-08-04T12:44:51.294Z,2.70
2018-08-04T12:45:51.307Z,3.00
2018-08-04T12:46:51.311Z,2.50
2018-08-04T12:47:51.331Z,2.60
2018-08-04T12:48:51.328Z,2.80
2018-08-04T12:49:51.340Z,2.50
2018-08-04T12:50:51.351Z,2.60
2018-08-04T12:51:51.357Z,2.60
2018-08-04T12:52:51.367Z,2.90
2018-08-04T12:53:51.377Z,2.80
2018-08-04T12:54:51.382Z,2.50
2018-08-04T12:55:51.394Z,2.70
2018-08-04T12:56:51.405Z,2.80
2018-08-04T12:57:51.414Z,2.60
2018-08-04T12:58:51.425Z,2.70
2018-08-04T12:59:51.429Z,2.70
2018-08-04T13:00:51.438Z,2.80
2018-08-04T13:01:51.449Z,2.70
2018-08-04T13:02:51.460Z,2.60
2018-08-04T13:03:51.470Z,2.60
2018-08-04T13:04:51.481Z,2.70
2018-08-04T13:05:51.486Z,2.90
2018-08-04T13:06:51.496Z,2.80
2018-08-04T13:07:51.503Z,2.80
2018-08-04T13:08:51.549Z,2.80
2018-08-04T13:09:51.521Z,2.50
2018-08-04T13:10:51.532Z,2.70
2018-08-04T13:11:51.560Z,3.20
2018-08-04T13:12:51.547Z,2.90
2018-08-04T13:13:51.560Z,2.80
2018-08-04T13:14:51.566Z,2.70
2018-08-04T13:15:51.576Z,2.80
2018-08-04T13:16:51.582Z,2.90
2018-08-04T13:17:51.589Z,2.70
2018-08-04T13:18:51.596Z,2.60